createdAt,value
2017-11-14T00:00:49.922Z,0.63
2017-11-14T00:03:17.494Z,0.80
2017-11-14T00:05:45.090Z,0.60
2017-11-14T00:08:12.598Z,0.60
2017-11-14T00:10:41.389Z,0.70
2017-11-14T00:13:09.804Z,0.73
2017-11-14T00:15:37.340Z,0.60
2017-11-14T00:18:04.882Z,0.60
2017-11-14T00:20:32.388Z,0.60
2017-11-14T00:23:06.155Z,0.80
2017-11-14T00:25:40.031Z,0.67
2017-11-14T00:28:07.564Z,0.70
2017-11-14T00:30:45.246Z,2.43
2017-11-14T00:33:13.132Z,0.75
2017-11-14T00:35:40.634Z,1.40
2017-11-14T00:38:08.149Z,0.60
2017-11-14T00:40:35.759Z,4.00
2017-11-14T00:43:04.047Z,0.80
2017-11-14T00:45:32.389Z,0.70
2017-11-14T00:47:59.933Z,0.70
2017-11-14T00:50:27.782Z,0.85
2017-11-14T00:52:55.295Z,0.90
2017-11-14T00:55:22.802Z,0.60
2017-11-14T00:57:50.923Z,1.25
2017-11-14T01:00:18.453Z,0.70
2017-11-14T01:02:51.617Z,0.70
2017-11-14T01:05:19.158Z,2.00
2017-11-14T01:08:04.993Z,0.90
2017-11-14T01:10:32.901Z,0.60
2017-11-14T01:13:01.305Z,2.00
2017-11-14T01:15:28.844Z,2.20
2017-11-14T01:17:56.734Z,0.90
2017-11-14T01:20:24.365Z,0.70
2017-11-14T01:22:51.914Z,0.80
2017-11-14T01:25:19.894Z,1.00
2017-11-14T01:27:47.438Z,0.70
2017-11-14T01:30:15.008Z,0.77
2017-11-14T01:32:42.529Z,1.98
2017-11-14T01:35:11.880Z,1.02
2017-11-14T01:37:40.207Z,0.70
2017-11-14T01:40:07.840Z,0.70
2017-11-14T01:42:35.427Z,0.70
2017-11-14T01:45:02.927Z,0.60
2017-11-14T01:47:30.753Z,0.70
2017-11-14T01:49:58.259Z,0.98
2017-11-14T01:52:26.066Z,0.88
2017-11-14T01:54:53.630Z,0.77
2017-11-14T01:57:21.189Z,0.70
2017-11-14T01:59:48.734Z,1.05
2017-11-14T02:02:17.068Z,0.70
2017-11-14T02:04:44.923Z,0.90
2017-11-14T02:07:13.230Z,0.77
2017-11-14T02:09:40.736Z,0.60
2017-11-14T02:12:08.298Z,1.73
2017-11-14T02:14:35.815Z,0.60
2017-11-14T02:17:04.025Z,0.60
2017-11-14T02:19:31.562Z,1.27
2017-11-14T02:21:59.362Z,0.70
2017-11-14T02:24:26.967Z,0.70
2017-11-14T02:27:00.485Z,0.60
2017-11-14T02:29:28.543Z,0.60
2017-11-14T02:31:56.115Z,0.60
2017-11-14T02:34:23.734Z,0.70
2017-11-14T02:36:51.291Z,2.05
2017-11-14T02:39:18.881Z,1.62
2017-11-14T02:41:46.509Z,0.70
2017-11-14T02:44:14.376Z,0.70
2017-11-14T02:46:42.723Z,1.05
2017-11-14T02:49:10.999Z,0.62
2017-11-14T02:51:39.298Z,1.10
2017-11-14T02:54:06.882Z,0.70
2017-11-14T02:56:42.970Z,0.60
2017-11-14T02:59:10.504Z,0.70
2017-11-14T03:01:38.393Z,0.63
2017-11-14T03:04:05.905Z,0.60
2017-11-14T03:06:33.407Z,0.77
2017-11-14T03:09:00.957Z,1.13
2017-11-14T03:11:28.454Z,0.80
2017-11-14T03:13:55.983Z,0.80
2017-11-14T03:16:23.493Z,1.90
2017-11-14T03:18:51.308Z,0.90
2017-11-14T03:21:18.820Z,0.80
2017-11-14T03:23:46.325Z,0.85
2017-11-14T03:26:13.868Z,0.70
2017-11-14T03:28:41.375Z,0.70
2017-11-14T03:31:08.919Z,0.60
2017-11-14T03:33:36.431Z,0.70
2017-11-14T03:36:03.956Z,0.63
2017-11-14T03:38:31.534Z,1.53
2017-11-14T03:40:59.329Z,1.27
2017-11-14T03:43:26.837Z,0.80
2017-11-14T03:45:54.345Z,0.73
2017-11-14T03:48:21.893Z,0.70
2017-11-14T03:50:50.300Z,0.60
2017-11-14T03:53:24.960Z,0.60
2017-11-14T03:55:52.450Z,0.90
2017-11-14T03:58:21.306Z,0.70
2017-11-14T04:00:48.850Z,0.70
2017-11-14T04:03:16.364Z,0.63
2017-11-14T04:05:44.684Z,0.70
2017-11-14T04:08:12.221Z,0.70
2017-11-14T04:10:39.827Z,1.83
2017-11-14T04:13:07.398Z,0.70
2017-11-14T04:15:35.231Z,0.70
2017-11-14T04:18:02.759Z,0.90
2017-11-14T04:20:31.016Z,0.60
2017-11-14T04:22:59.323Z,2.03
2017-11-14T04:25:26.834Z,0.70
2017-11-14T04:27:54.374Z,0.60
2017-11-14T04:30:21.909Z,0.60
2017-11-14T04:32:49.689Z,0.70
2017-11-14T04:35:17.204Z,0.80
2017-11-14T04:37:45.473Z,0.80
2017-11-14T04:40:13.007Z,0.70
2017-11-14T04:42:40.512Z,0.70
2017-11-14T04:45:08.925Z,0.90
2017-11-14T04:47:36.450Z,0.70
2017-11-14T04:50:04.736Z,0.70
2017-11-14T04:52:40.684Z,0.70
2017-11-14T04:55:09.239Z,1.27
2017-11-14T04:57:36.752Z,0.60
2017-11-14T05:00:04.249Z,0.60
2017-11-14T05:02:31.791Z,0.60
2017-11-14T05:05:00.107Z,0.70
2017-11-14T05:07:27.643Z,0.80
2017-11-14T05:09:55.190Z,0.70
2017-11-14T05:12:23.058Z,1.13
2017-11-14T05:14:50.619Z,0.67
2017-11-14T05:17:18.174Z,2.10
2017-11-14T05:19:45.710Z,1.07
2017-11-14T05:22:13.213Z,0.90
2017-11-14T05:24:41.042Z,0.80
2017-11-14T05:27:08.565Z,0.60
2017-11-14T05:29:36.069Z,0.70
2017-11-14T05:32:03.631Z,0.70
2017-11-14T05:34:31.906Z,0.70
2017-11-14T05:36:59.442Z,0.70
2017-11-14T05:39:27.795Z,2.53
2017-11-14T05:41:55.593Z,0.73
2017-11-14T05:44:23.147Z,0.70
2017-11-14T05:46:50.649Z,1.47
2017-11-14T05:49:18.193Z,0.70
2017-11-14T05:51:45.722Z,0.70
2017-11-14T05:54:13.279Z,0.80
2017-11-14T05:56:41.561Z,0.73
2017-11-14T05:59:10.176Z,0.70
2017-11-14T06:01:37.709Z,0.60
2017-11-14T06:04:05.986Z,0.70
2017-11-14T06:06:34.271Z,0.70
2017-11-14T06:09:01.773Z,0.80
2017-11-14T06:11:29.298Z,0.70
2017-11-14T06:13:56.795Z,0.70
2017-11-14T06:16:24.762Z,0.67
2017-11-14T06:18:52.279Z,0.60
2017-11-14T06:21:19.776Z,1.63
2017-11-14T06:23:47.295Z,0.87
2017-11-14T06:26:14.793Z,1.00
2017-11-14T06:28:43.088Z,0.80
2017-11-14T06:31:10.598Z,1.93
2017-11-14T06:33:38.491Z,2.33
2017-11-14T06:36:06.017Z,1.20
2017-11-14T06:38:33.509Z,2.73
2017-11-14T06:41:01.116Z,1.47
2017-11-14T06:43:28.614Z,1.43
2017-11-14T06:45:56.158Z,0.80
2017-11-14T06:48:24.444Z,0.63
2017-11-14T06:50:52.336Z,1.43
2017-11-14T06:53:20.817Z,1.10
2017-11-14T06:55:48.352Z,0.70
2017-11-14T06:58:15.888Z,0.70
2017-11-14T07:00:44.174Z,0.70
2017-11-14T07:03:12.465Z,0.70
2017-11-14T07:05:39.987Z,0.70
2017-11-14T07:08:07.517Z,0.60
2017-11-14T07:10:35.037Z,0.60
2017-11-14T07:13:06.181Z,0.83
2017-11-14T07:15:33.727Z,0.80
2017-11-14T07:18:01.235Z,0.80
2017-11-14T07:20:32.094Z,0.70
2017-11-14T07:22:59.597Z,1.23
2017-11-14T07:25:27.902Z,0.93
2017-11-14T07:27:55.409Z,1.00
2017-11-14T07:30:23.227Z,1.33
2017-11-14T07:32:50.736Z,0.70
2017-11-14T07:35:18.242Z,1.03
2017-11-14T07:37:45.803Z,2.33
2017-11-14T07:40:13.315Z,0.60
2017-11-14T07:42:40.844Z,1.27
2017-11-14T07:45:08.349Z,1.80
2017-11-14T07:47:36.987Z,0.60
2017-11-14T07:50:04.496Z,1.47
2017-11-14T07:52:32.014Z,0.67
2017-11-14T07:54:59.561Z,2.57
2017-11-14T07:57:27.066Z,0.80
2017-11-14T07:59:55.374Z,0.60
2017-11-14T08:02:22.924Z,3.07
2017-11-14T08:04:51.532Z,0.70
2017-11-14T08:07:19.817Z,1.33
2017-11-14T08:09:47.323Z,0.60
2017-11-14T08:12:14.850Z,1.57
2017-11-14T08:14:42.565Z,0.60
2017-11-14T08:17:10.855Z,0.60
2017-11-14T08:19:38.365Z,0.60
2017-11-14T08:22:07.011Z,0.60
2017-11-14T08:24:34.544Z,2.20
2017-11-14T08:27:02.821Z,0.60
2017-11-14T08:29:31.139Z,0.60
2017-11-14T08:31:58.686Z,0.60
2017-11-14T08:34:26.226Z,0.70
2017-11-14T08:36:54.487Z,0.60
2017-11-14T08:39:22.309Z,0.70
2017-11-14T08:41:49.825Z,0.70
2017-11-14T08:44:17.319Z,0.63
2017-11-14T08:46:44.871Z,0.70
2017-11-14T08:49:12.400Z,1.00
2017-11-14T08:51:39.928Z,1.40
2017-11-14T08:54:07.430Z,7.20
2017-11-14T08:56:35.726Z,7.57
2017-11-14T08:59:03.244Z,7.80
2017-11-14T09:01:31.052Z,8.00
2017-11-14T09:03:58.578Z,7.20
2017-11-14T09:06:26.892Z,6.03
2017-11-14T09:08:54.417Z,7.57
2017-11-14T09:11:21.927Z,7.53
2017-11-14T09:13:50.225Z,6.77
2017-11-14T09:16:17.735Z,6.83
2017-11-14T09:18:46.463Z,5.77
2017-11-14T09:21:13.982Z,6.67
2017-11-14T09:23:42.269Z,7.90
2017-11-14T09:26:09.818Z,6.07
2017-11-14T09:28:37.346Z,6.07
2017-11-14T09:31:05.203Z,6.10
2017-11-14T09:33:32.751Z,6.10
2017-11-14T09:36:00.262Z,7.20
2017-11-14T09:38:28.571Z,5.97
2017-11-14T09:40:56.082Z,6.43
2017-11-14T09:43:23.637Z,5.80
2017-11-14T09:45:51.184Z,6.63
2017-11-14T09:48:18.724Z,6.20
2017-11-14T09:50:46.998Z,7.67
2017-11-14T09:53:14.572Z,6.20
2017-11-14T09:55:42.095Z,6.57
2017-11-14T09:58:09.648Z,5.57
2017-11-14T10:00:37.187Z,6.57
2017-11-14T10:03:04.950Z,6.13
2017-11-14T10:05:32.456Z,6.00
2017-11-14T10:07:59.992Z,15.40
2017-11-14T10:10:27.609Z,6.87
2017-11-14T10:12:55.529Z,5.90
2017-11-14T10:15:23.050Z,5.93
2017-11-14T10:17:50.610Z,7.20
2017-11-14T10:20:18.117Z,6.53
2017-11-14T10:22:45.655Z,5.73
2017-11-14T10:25:13.948Z,6.03
2017-11-14T10:27:41.492Z,6.07
2017-11-14T10:30:10.556Z,7.77
2017-11-14T10:32:38.116Z,6.70
2017-11-14T10:35:05.657Z,5.80
2017-11-14T10:37:33.214Z,6.47
2017-11-14T10:40:00.736Z,5.83
2017-11-14T10:42:28.283Z,5.40
2017-11-14T10:44:56.565Z,5.53
2017-11-14T10:47:24.970Z,5.97
2017-11-14T10:49:52.474Z,4.70
2017-11-14T10:52:19.966Z,5.43
2017-11-14T10:54:48.269Z,6.03
2017-11-14T10:57:15.797Z,6.00
2017-11-14T10:59:44.119Z,5.40
2017-11-14T11:02:11.647Z,5.57
2017-11-14T11:04:40.031Z,5.90
2017-11-14T11:07:07.544Z,5.07
2017-11-14T11:09:35.096Z,4.90
2017-11-14T11:12:02.668Z,5.60
2017-11-14T11:14:30.252Z,6.30
2017-11-14T11:16:57.771Z,9.50
2017-11-14T11:19:25.302Z,6.27
2017-11-14T11:21:52.827Z,5.90
2017-11-14T11:24:20.376Z,6.30
2017-11-14T11:26:47.916Z,5.80
2017-11-14T11:29:15.483Z,5.90
2017-11-14T11:31:43.005Z,5.10
2017-11-14T11:34:10.561Z,6.63
2017-11-14T11:36:38.093Z,5.07
2017-11-14T11:39:05.631Z,5.83
2017-11-14T11:41:33.378Z,4.63
2017-11-14T11:44:00.914Z,5.03
2017-11-14T11:46:28.421Z,6.47
2017-11-14T11:48:55.970Z,5.70
2017-11-14T11:51:23.481Z,6.00
2017-11-14T11:53:51.784Z,5.17
2017-11-14T11:56:22.422Z,4.80
2017-11-14T11:58:49.960Z,5.10
2017-11-14T12:01:17.476Z,4.53
2017-11-14T12:03:45.009Z,5.13
2017-11-14T12:06:12.522Z,5.03
2017-11-14T12:08:40.880Z,4.90
2017-11-14T12:11:09.194Z,6.00
2017-11-14T12:13:36.716Z,4.63
2017-11-14T12:16:04.240Z,4.83
2017-11-14T12:18:31.765Z,3.80
2017-11-14T12:21:00.174Z,4.60
2017-11-14T12:23:27.699Z,4.87
2017-11-14T12:25:56.003Z,4.90
2017-11-14T12:28:23.521Z,5.97
2017-11-14T12:30:51.090Z,5.13
2017-11-14T12:33:19.363Z,5.00
2017-11-14T12:35:46.931Z,5.23
2017-11-14T12:38:15.205Z,5.70
2017-11-14T12:40:43.583Z,4.87
2017-11-14T12:43:11.894Z,5.63
2017-11-14T12:45:39.452Z,5.43
2017-11-14T12:48:06.996Z,6.30
2017-11-14T12:50:35.312Z,5.93
2017-11-14T12:53:02.850Z,6.83
2017-11-14T12:55:30.403Z,4.97
2017-11-14T12:57:57.976Z,6.07
2017-11-14T13:00:25.566Z,5.40
2017-11-14T13:02:53.414Z,4.70
2017-11-14T13:05:20.915Z,4.90
2017-11-14T13:07:48.428Z,3.80
2017-11-14T13:10:16.012Z,3.80
2017-11-14T13:12:43.542Z,3.83
2017-11-14T13:15:11.090Z,4.13
2017-11-14T13:17:38.631Z,4.43
2017-11-14T13:20:06.449Z,4.50
2017-11-14T13:22:34.109Z,4.67
2017-11-14T13:25:01.628Z,4.63
2017-11-14T13:27:29.978Z,4.33
2017-11-14T13:29:57.494Z,5.70
2017-11-14T13:32:25.068Z,4.67
2017-11-14T13:34:52.591Z,4.63
2017-11-14T13:37:20.412Z,5.00
2017-11-14T13:39:47.924Z,3.80
2017-11-14T13:42:16.368Z,4.57
2017-11-14T13:44:43.949Z,4.27
2017-11-14T13:47:12.248Z,3.77
2017-11-14T13:49:39.828Z,4.67
2017-11-14T13:52:07.341Z,4.20
2017-11-14T13:54:35.196Z,4.67
2017-11-14T13:57:02.744Z,4.07
2017-11-14T13:59:30.254Z,4.90
2017-11-14T14:01:58.547Z,5.33
2017-11-14T14:04:26.325Z,4.77
2017-11-14T14:06:53.975Z,4.30
2017-11-14T14:09:22.709Z,4.60
2017-11-14T14:11:52.260Z,5.33
2017-11-14T14:14:19.885Z,4.57
2017-11-14T14:16:48.575Z,4.40
2017-11-14T14:19:16.324Z,4.50
2017-11-14T14:21:43.939Z,5.30
2017-11-14T14:24:11.603Z,4.77
2017-11-14T14:26:40.905Z,4.20
2017-11-14T14:29:08.782Z,5.00
2017-11-14T14:31:36.286Z,5.00
2017-11-14T14:34:04.760Z,4.30
2017-11-14T14:36:32.485Z,4.90
2017-11-14T14:39:00.173Z,4.80
2017-11-14T14:41:28.081Z,4.40
2017-11-14T14:43:56.737Z,5.37
2017-11-14T14:46:24.535Z,4.17
2017-11-14T14:48:53.029Z,5.83
2017-11-14T14:51:21.578Z,4.83
2017-11-14T14:53:50.011Z,5.53
2017-11-14T14:56:17.974Z,5.83
2017-11-14T14:58:46.366Z,5.50
2017-11-14T15:01:14.191Z,5.23
2017-11-14T15:03:42.349Z,5.20
2017-11-14T15:06:09.933Z,4.83
2017-11-14T15:08:38.318Z,5.63
2017-11-14T15:11:06.181Z,5.17
2017-11-14T15:13:33.726Z,4.90
2017-11-14T15:16:01.295Z,4.83
2017-11-14T15:18:32.533Z,5.80
2017-11-14T15:21:00.442Z,5.23
2017-11-14T15:23:28.018Z,6.40
2017-11-14T15:25:57.197Z,5.43
2017-11-14T15:28:25.382Z,5.63
2017-11-14T15:44:33.087Z,4.07
2017-11-14T15:47:00.874Z,5.60
2017-11-14T15:49:28.490Z,5.83
2017-11-14T15:51:57.189Z,5.47
2017-11-14T15:54:28.105Z,6.03
2017-11-14T15:56:55.642Z,5.60
2017-11-14T15:59:23.280Z,6.40
2017-11-14T16:01:51.583Z,6.40
2017-11-14T16:04:19.204Z,5.27
2017-11-14T16:06:47.558Z,6.00
2017-11-14T16:09:15.478Z,6.83
2017-11-14T16:11:44.237Z,6.77
2017-11-14T16:14:11.820Z,6.67
2017-11-14T16:16:39.473Z,5.97
2017-11-14T16:19:07.419Z,5.20
2017-11-14T16:21:35.027Z,6.33
2017-11-14T16:24:02.649Z,6.00
2017-11-14T16:26:30.860Z,5.97
2017-11-14T16:28:58.945Z,5.23
2017-11-14T16:31:27.490Z,5.00
2017-11-14T16:33:55.383Z,5.57
2017-11-14T16:36:24.538Z,5.67
2017-11-14T16:38:52.523Z,5.30
2017-11-14T16:41:20.105Z,5.10
2017-11-14T16:43:48.370Z,7.20
2017-11-14T16:46:16.648Z,6.40
2017-11-14T16:49:05.032Z,5.40
2017-11-14T16:51:57.809Z,7.57
2017-11-14T17:00:13.482Z,7.63
2017-11-14T17:02:49.124Z,5.90
2017-11-14T17:05:31.015Z,6.43
2017-11-14T17:10:49.404Z,9.87
2017-11-14T17:13:17.001Z,8.20
2017-11-14T17:15:44.713Z,6.63
2017-11-14T17:18:12.460Z,12.00
2017-11-14T17:20:42.907Z,9.67
2017-11-14T17:23:10.463Z,7.60
2017-11-14T17:25:48.195Z,13.10
2017-11-14T17:28:21.211Z,9.00
2017-11-14T17:31:07.904Z,8.27
2017-11-14T17:33:40.826Z,5.70
2017-11-14T17:36:10.560Z,5.17
2017-11-14T17:41:40.234Z,6.07
2017-11-14T17:44:08.328Z,6.30
2017-11-14T17:49:48.655Z,6.10
2017-11-14T17:52:17.058Z,5.17
2017-11-14T17:54:44.808Z,5.00
2017-11-14T17:57:12.472Z,4.97
2017-11-14T17:59:40.155Z,6.57
2017-11-14T18:02:07.796Z,5.10
2017-11-14T18:04:36.146Z,6.20
2017-11-14T18:07:04.764Z,6.50
2017-11-14T18:09:34.245Z,7.10
2017-11-14T18:15:09.128Z,7.10
2017-11-14T18:17:37.331Z,8.83
2017-11-14T18:20:04.993Z,6.93
2017-11-14T18:22:33.186Z,7.70
2017-11-14T18:25:00.766Z,7.27
2017-11-14T18:27:35.328Z,9.33
2017-11-14T18:30:10.893Z,8.17
2017-11-14T18:32:38.847Z,8.60
2017-11-14T18:35:06.361Z,5.60
2017-11-14T18:37:33.972Z,5.93
2017-11-14T18:40:01.629Z,6.10
2017-11-14T18:42:29.424Z,6.20
2017-11-14T18:44:57.393Z,6.30
2017-11-14T18:47:24.965Z,5.60
2017-11-14T18:49:52.529Z,6.23
2017-11-14T18:52:20.304Z,6.77
2017-11-14T18:54:52.571Z,6.40
2017-11-14T18:57:24.705Z,6.43
2017-11-14T18:59:52.467Z,5.70
2017-11-14T19:02:20.500Z,6.10
2017-11-14T19:04:51.689Z,7.63
2017-11-14T19:07:19.275Z,6.20
2017-11-14T19:09:46.824Z,5.13
2017-11-14T19:14:50.625Z,6.93
2017-11-14T19:17:25.531Z,9.60
2017-11-14T19:22:50.528Z,6.63
2017-11-14T19:25:28.899Z,8.90
2017-11-14T19:27:57.408Z,6.20
2017-11-14T19:30:25.031Z,5.20
2017-11-14T19:32:52.651Z,5.50
2017-11-14T19:35:20.233Z,5.80
2017-11-14T19:37:47.810Z,6.13
2017-11-14T19:40:15.481Z,5.90
2017-11-14T19:45:31.340Z,7.23
2017-11-14T19:48:01.476Z,6.00
2017-11-14T19:50:32.603Z,5.93
2017-11-14T19:53:02.389Z,7.30
2017-11-14T19:58:41.903Z,22.30
2017-11-14T20:04:11.366Z,9.70
2017-11-14T20:06:40.420Z,6.37
2017-11-14T20:09:12.465Z,6.47
2017-11-14T20:11:40.043Z,5.93
2017-11-14T20:14:07.614Z,7.27
2017-11-14T20:16:35.250Z,6.50
2017-11-14T20:19:03.548Z,6.50
2017-11-14T20:21:31.192Z,6.30
2017-11-14T20:23:59.542Z,7.23
2017-11-14T20:26:27.520Z,6.67
2017-11-14T20:28:55.726Z,6.40
2017-11-14T20:31:23.533Z,7.20
2017-11-14T20:33:51.255Z,6.60
2017-11-14T20:36:19.598Z,7.40
2017-11-14T20:38:48.096Z,7.43
2017-11-14T20:41:16.477Z,5.57
2017-11-14T20:43:44.650Z,6.67
2017-11-14T20:46:13.708Z,5.40
2017-11-14T20:48:42.833Z,6.90
2017-11-14T20:51:10.422Z,7.63
2017-11-14T20:53:38.019Z,13.57
2017-11-14T20:56:05.593Z,6.13
2017-11-14T20:58:33.173Z,6.93
2017-11-14T21:01:02.010Z,6.43
2017-11-14T21:03:29.599Z,8.53
2017-11-14T21:05:57.151Z,6.77
2017-11-14T21:08:25.596Z,7.27
2017-11-14T21:10:53.182Z,8.20
2017-11-14T21:13:20.806Z,6.53
2017-11-14T21:15:49.079Z,6.90
2017-11-14T21:18:17.339Z,7.00
2017-11-14T21:20:44.887Z,6.40
2017-11-14T21:23:12.423Z,6.17
2017-11-14T21:25:40.468Z,8.30
2017-11-14T21:28:08.182Z,6.70
2017-11-14T21:30:35.739Z,6.37
2017-11-14T21:33:03.333Z,7.60
2017-11-14T21:35:31.801Z,6.23
2017-11-14T21:37:59.364Z,6.77
2017-11-14T21:40:26.898Z,6.23
2017-11-14T21:42:54.468Z,6.63
2017-11-14T21:45:21.993Z,5.90
2017-11-14T21:47:53.132Z,6.50
2017-11-14T21:50:21.460Z,7.83
2017-11-14T21:52:50.260Z,6.23
2017-11-14T21:55:17.784Z,6.00
2017-11-14T21:57:45.317Z,5.67
2017-11-14T22:00:13.702Z,7.13
2017-11-14T22:02:42.021Z,7.73
2017-11-14T22:05:09.587Z,6.43
2017-11-14T22:07:37.122Z,7.33
2017-11-14T22:10:04.952Z,6.70
2017-11-14T22:12:32.466Z,7.27
2017-11-14T22:14:59.966Z,7.47
2017-11-14T22:17:27.528Z,6.57
2017-11-14T22:19:55.037Z,8.20
2017-11-14T22:22:22.646Z,7.00
2017-11-14T22:24:50.159Z,7.20
2017-11-14T22:27:17.751Z,7.60
2017-11-14T22:29:45.301Z,7.20
2017-11-14T22:32:13.183Z,7.27
2017-11-14T22:34:40.737Z,7.10
2017-11-14T22:37:08.281Z,8.30
2017-11-14T22:39:35.815Z,7.77
2017-11-14T22:42:03.337Z,6.40
2017-11-14T22:44:30.895Z,7.20
2017-11-14T22:46:58.429Z,6.80
2017-11-14T22:49:27.004Z,8.30
2017-11-14T22:51:54.529Z,7.60
2017-11-14T22:54:22.067Z,8.33
2017-11-14T22:56:49.607Z,6.70
2017-11-14T22:59:17.241Z,7.60
2017-11-14T23:01:44.798Z,6.10
2017-11-14T23:04:12.335Z,7.10
2017-11-14T23:06:40.655Z,7.27
2017-11-14T23:09:08.163Z,6.87
2017-11-14T23:11:36.726Z,7.60
2017-11-14T23:14:04.243Z,6.10
2017-11-14T23:16:31.742Z,7.00
2017-11-14T23:18:59.305Z,6.40
2017-11-14T23:21:26.829Z,7.10
2017-11-14T23:23:54.389Z,6.03
2017-11-14T23:26:21.909Z,6.93
2017-11-14T23:28:50.245Z,6.60
2017-11-14T23:31:17.791Z,6.10
2017-11-14T23:33:45.335Z,7.13
2017-11-14T23:36:12.887Z,8.20
2017-11-14T23:38:40.410Z,7.60
2017-11-14T23:41:09.954Z,7.60
2017-11-14T23:43:37.467Z,7.17
2017-11-14T23:46:04.995Z,7.83
2017-11-14T23:48:32.526Z,6.87
2017-11-14T23:51:00.032Z,7.43
2017-11-14T23:53:27.570Z,7.13
2017-11-14T23:55:55.079Z,8.00
2017-11-14T23:58:23.009Z,7.70
